createdAt,value
2023-02-07T00:02:12.476Z,-5.09998
2023-02-07T00:07:13.413Z,-5.09546
2023-02-07T00:12:14.511Z,-5.13842
2023-02-07T00:17:15.852Z,-5.10644
2023-02-07T00:22:16.769Z,-5.14165
2023-02-07T00:27:17.694Z,-5.23919
2023-02-07T00:32:18.621Z,-5.25631
2023-02-07T00:37:19.549Z,-5.34481
2023-02-07T00:42:20.477Z,-5.43137
2023-02-07T00:47:21.721Z,-5.48466
2023-02-07T00:52:22.907Z,-5.45042
2023-02-07T00:57:23.825Z,-5.43944
2023-02-07T01:02:24.734Z,-5.44493
2023-02-07T01:07:25.694Z,-5.42846
2023-02-07T01:12:26.648Z,-5.5063
2023-02-07T01:17:27.613Z,-5.52956
2023-02-07T01:22:28.558Z,-5.60255
2023-02-07T01:27:29.439Z,-5.61159
2023-02-07T01:32:30.361Z,-5.66682
2023-02-07T01:37:31.264Z,-5.68071
2023-02-07T01:42:32.146Z,-5.64583
2023-02-07T01:47:33.080Z,-5.65681
2023-02-07T01:52:33.981Z,-5.71075
2023-02-07T01:57:34.907Z,-5.77179
2023-02-07T02:02:35.854Z,-5.74499
2023-02-07T02:07:36.785Z,-5.78665
2023-02-07T02:12:37.697Z,-5.84737
2023-02-07T02:17:38.642Z,-5.85835
2023-02-07T02:22:39.655Z,-5.93458
2023-02-07T02:27:40.591Z,-5.91035
2023-02-07T02:32:41.492Z,-5.96365
2023-02-07T02:37:42.502Z,-6.00014
2023-02-07T02:42:43.429Z,-6.06668
2023-02-07T02:47:44.319Z,-6.06216
2023-02-07T02:52:50.937Z,-6.08379
2023-02-07T02:57:52.265Z,-6.16357
2023-02-07T03:02:53.194Z,-6.17423
2023-02-07T03:07:54.101Z,-6.14258
2023-02-07T03:12:55.052Z,-6.18747
2023-02-07T03:17:55.988Z,-6.29309
2023-02-07T03:22:56.879Z,-6.4226
2023-02-07T03:27:57.880Z,-6.48688
2023-02-07T03:32:59.057Z,-6.52951
2023-02-07T03:38:00.133Z,-6.55373
2023-02-07T03:43:01.258Z,-6.57247
2023-02-07T03:48:02.254Z,-6.37609
2023-02-07T03:53:03.365Z,-6.48785
2023-02-07T03:58:04.360Z,-6.48785
2023-02-07T04:03:05.307Z,-6.51304
2023-02-07T04:08:06.728Z,-6.51659
2023-02-07T04:13:07.685Z,-6.57989
2023-02-07T04:18:08.747Z,-6.61413
2023-02-07T04:23:09.680Z,-6.61122
2023-02-07T04:28:10.704Z,-6.67421
2023-02-07T04:33:11.640Z,-6.68099
2023-02-07T04:38:12.551Z,-6.63771
2023-02-07T04:43:13.443Z,-6.64772
2023-02-07T04:48:14.392Z,-6.65353
2023-02-07T04:53:15.324Z,-6.66032
2023-02-07T04:58:16.253Z,-6.70134
2023-02-07T05:03:17.255Z,-6.71264
2023-02-07T05:08:18.226Z,-6.73428
2023-02-07T05:13:19.265Z,-6.78886
2023-02-07T05:18:20.246Z,-6.72814
2023-02-07T05:23:21.505Z,-6.75366
2023-02-07T05:28:22.774Z,-6.81438
2023-02-07T05:33:24.012Z,-6.78789
2023-02-07T05:38:25.096Z,-6.84119
2023-02-07T05:43:26.024Z,-6.86993
2023-02-07T05:48:26.997Z,-6.90772
2023-02-07T05:53:27.909Z,-6.90288
2023-02-07T05:58:28.835Z,-6.88091
2023-02-07T06:03:29.780Z,-6.91967
2023-02-07T06:08:30.733Z,-6.91902
2023-02-07T06:13:31.790Z,-6.99815
2023-02-07T06:18:32.763Z,-7.08439
2023-02-07T06:23:33.736Z,-7.1745
2023-02-07T06:28:34.665Z,-7.22715
2023-02-07T06:33:35.714Z,-7.2672
2023-02-07T06:38:36.754Z,-7.25395
2023-02-07T06:43:37.923Z,-7.31984
2023-02-07T06:48:38.956Z,-7.35052
2023-02-07T06:53:39.843Z,-7.36506
2023-02-07T06:58:40.882Z,-7.3502
2023-02-07T07:03:41.842Z,-7.31887
2023-02-07T07:08:42.877Z,-7.13251
2023-02-07T07:13:43.813Z,-6.95132
2023-02-07T07:18:44.745Z,-6.8428
2023-02-07T07:23:45.662Z,-6.70327
2023-02-07T07:28:46.596Z,-6.59475
2023-02-07T07:33:47.568Z,-6.5631
2023-02-07T07:38:49.657Z,-6.49011
2023-02-07T07:43:51.058Z,-6.31344
2023-02-07T07:48:52.106Z,-6.24496
2023-02-07T07:53:53.029Z,-6.20233
2023-02-07T07:58:54.102Z,-6.13386
2023-02-07T08:03:55.053Z,-6.15614
2023-02-07T08:08:55.981Z,-6.12998
2023-02-07T08:13:56.934Z,-5.96397
2023-02-07T08:18:57.875Z,-5.67361
2023-02-07T08:23:58.803Z,-5.43395
2023-02-07T08:28:59.745Z,-5.23532
2023-02-07T08:34:00.673Z,-5.06316
2023-02-07T08:39:01.626Z,-4.8445
2023-02-07T08:44:02.532Z,-4.69173
2023-02-07T08:49:03.480Z,-4.6042
2023-02-07T08:54:04.392Z,-4.4075
2023-02-07T08:59:05.654Z,-4.2754
2023-02-07T09:04:06.779Z,-4.1181
2023-02-07T09:09:07.760Z,-3.93174
2023-02-07T09:14:08.721Z,-3.70015
2023-02-07T09:19:09.680Z,-3.53478
2023-02-07T09:24:10.938Z,-3.4789
2023-02-07T09:29:11.953Z,-3.33485
2023-02-07T09:34:12.958Z,-3.07258
2023-02-07T09:39:13.953Z,-2.8074
2023-02-07T09:44:15.125Z,-2.695
2023-02-07T09:49:16.174Z,-2.47956
2023-02-07T09:54:17.104Z,1.66392
2023-02-07T09:59:18.071Z,8.26841
2023-02-07T10:04:19.027Z,12.03603
2023-02-07T10:09:19.966Z,12.40527
2023-02-07T10:14:21.176Z,12.73736
2023-02-07T10:19:22.325Z,13.38346
2023-02-07T10:24:23.577Z,14.45277
2023-02-07T10:29:24.569Z,12.76482
2023-02-07T10:34:25.551Z,11.61058
2023-02-07T10:39:26.497Z,13.7427
2023-02-07T10:44:27.421Z,14.46601
2023-02-07T10:49:28.345Z,14.07318
2023-02-07T10:54:29.281Z,14.09386
2023-02-07T10:59:30.250Z,14.05541
2023-02-07T11:04:31.162Z,13.18123
2023-02-07T11:09:32.090Z,12.1604
2023-02-07T11:14:34.892Z,12.19367
2023-02-07T11:19:37.313Z,13.07204
2023-02-07T11:24:38.201Z,10.46216
2023-02-07T11:29:39.202Z,9.69203
2023-02-07T11:34:40.134Z,8.67285
2023-02-07T11:39:41.070Z,7.58779
2023-02-07T11:44:41.971Z,9.51985
2023-02-07T11:49:42.944Z,11.77888
2023-02-07T11:54:43.953Z,11.37475
2023-02-07T11:59:44.954Z,11.45648
2023-02-07T12:04:45.923Z,10.35717
2023-02-07T12:09:46.931Z,9.45525
2023-02-07T12:14:47.907Z,10.11198
2023-02-07T12:19:48.810Z,13.38443
2023-02-07T12:24:49.748Z,13.08852
2023-02-07T12:29:50.681Z,12.07027
2023-02-07T12:34:51.622Z,11.60315
2023-02-07T12:39:52.748Z,12.87466
2023-02-07T12:44:53.665Z,15.18191
2023-02-07T12:49:54.574Z,15.78538
2023-02-07T12:54:55.531Z,17.92988
2023-02-07T12:59:56.453Z,18.9385
2023-02-07T13:04:57.369Z,15.86905
2023-02-07T13:09:58.289Z,16.22668
2023-02-07T13:14:59.627Z,15.19903
2023-02-07T13:20:00.630Z,11.26104
2023-02-07T13:25:01.603Z,9.50629
2023-02-07T13:30:02.625Z,7.76933
2023-02-07T13:35:03.594Z,6.64002
2023-02-07T13:40:04.554Z,5.86637
2023-02-07T13:45:05.506Z,5.387
2023-02-07T13:50:06.435Z,4.91507
2023-02-07T13:55:07.325Z,4.59011
2023-02-07T14:00:08.275Z,4.22736
2023-02-07T14:05:09.171Z,3.92889
2023-02-07T14:10:10.186Z,3.73637
2023-02-07T14:15:11.115Z,3.56582
2023-02-07T14:20:12.005Z,3.44695
2023-02-07T14:25:12.925Z,3.35554
2023-02-07T14:30:13.867Z,3.24829
2023-02-07T14:35:14.791Z,3.21179
2023-02-07T14:40:15.730Z,3.00603
2023-02-07T14:45:16.740Z,2.88426
2023-02-07T14:50:17.681Z,2.76248
2023-02-07T14:55:18.597Z,2.63424
2023-02-07T15:00:19.539Z,2.48856
2023-02-07T15:05:20.451Z,2.31608
2023-02-07T15:10:21.374Z,2.14036
2023-02-07T15:15:22.672Z,1.87
2023-02-07T15:20:23.945Z,1.79377
2023-02-07T15:25:25.128Z,1.81767
2023-02-07T15:30:26.072Z,1.75178
2023-02-07T15:35:27.003Z,1.63743
2023-02-07T15:40:27.928Z,1.55829
2023-02-07T15:45:28.902Z,1.32282
2023-02-07T15:50:29.860Z,1.18489
2023-02-07T15:55:30.792Z,1.02824
2023-02-07T16:00:31.803Z,0.93166
2023-02-07T16:05:32.767Z,0.78566
2023-02-07T16:10:33.686Z,0.6122
2023-02-07T16:15:34.634Z,0.52693
2023-02-07T16:20:35.574Z,0.43875
2023-02-07T16:25:36.611Z,0.29049
2023-02-07T16:30:38.002Z,0.16193
2023-02-07T16:35:39.094Z,0.01755
2023-02-07T16:40:40.389Z,-0.13039
2023-02-07T16:45:41.568Z,-0.19305
2023-02-07T16:50:42.538Z,-0.26476
2023-02-07T16:55:43.494Z,-0.32871
2023-02-07T17:00:44.442Z,-0.41818
2023-02-07T17:05:45.350Z,-0.51088
2023-02-07T17:10:46.245Z,-0.55707
2023-02-07T17:15:47.163Z,-0.5603
2023-02-07T17:20:48.102Z,-0.53769
2023-02-07T17:25:49.025Z,-0.57355
2023-02-07T17:30:49.990Z,-0.59002
2023-02-07T17:35:50.970Z,-0.54835
2023-02-07T17:40:51.899Z,-0.5687
2023-02-07T17:45:52.942Z,-0.60811
2023-02-07T17:50:55.893Z,-0.66399
2023-02-07T17:55:57.053Z,-0.74571
2023-02-07T18:00:57.986Z,-0.73925
2023-02-07T18:05:59.626Z,-0.83453
2023-02-07T18:11:00.647Z,-0.87297
2023-02-07T18:16:01.641Z,-0.872
2023-02-07T18:21:02.928Z,-0.84099
2023-02-07T18:26:04.118Z,-0.8355
2023-02-07T18:31:05.348Z,-0.9689
2023-02-07T18:36:06.294Z,-1.00346
2023-02-07T18:41:07.259Z,-1.14332
2023-02-07T18:46:08.401Z,-1.22827
2023-02-07T18:51:09.406Z,-1.36231
2023-02-07T18:56:10.802Z,-1.48667
2023-02-07T19:01:11.791Z,-1.57226
2023-02-07T19:06:12.745Z,-1.63331
2023-02-07T19:11:13.679Z,-1.66819
2023-02-07T19:16:14.650Z,-1.66464
2023-02-07T19:21:15.610Z,-1.71018
2023-02-07T19:26:16.570Z,-1.7722
2023-02-07T19:31:17.585Z,-1.84584
2023-02-07T19:36:18.603Z,-1.86781
2023-02-07T19:41:19.536Z,-1.87556
2023-02-07T19:46:20.483Z,-1.97375
2023-02-07T19:51:21.437Z,-2.12976
2023-02-07T19:56:22.701Z,-2.17078
2023-02-07T20:01:23.974Z,-2.17724
2023-02-07T20:06:25.192Z,-2.24959
2023-02-07T20:11:26.155Z,-2.28706
2023-02-07T20:16:27.100Z,-2.33486
2023-02-07T20:21:28.025Z,-2.43854
2023-02-07T20:26:31.171Z,-2.52963
2023-02-07T20:31:32.640Z,-2.58615
2023-02-07T20:36:33.735Z,-2.57969
2023-02-07T20:41:34.706Z,-2.59422
2023-02-07T20:46:35.765Z,-2.67239
2023-02-07T20:51:36.697Z,-2.73279
2023-02-07T20:56:37.659Z,-2.7919
2023-02-07T21:01:38.632Z,-2.90139
2023-02-07T21:06:39.532Z,-2.91625
2023-02-07T21:11:40.645Z,-2.99861
2023-02-07T21:16:41.619Z,-3.00087
2023-02-07T21:21:42.579Z,-2.96405
2023-02-07T21:26:43.511Z,-3.03479
2023-02-07T21:31:44.472Z,-3.12587
2023-02-07T21:36:45.430Z,-3.2021
2023-02-07T21:41:46.411Z,-3.26508
2023-02-07T21:46:47.372Z,-3.2302
2023-02-07T21:51:48.345Z,-3.33388
2023-02-07T21:56:49.284Z,-3.32903
2023-02-07T22:01:50.328Z,-3.38427
2023-02-07T22:06:51.304Z,-3.41107
2023-02-07T22:11:52.261Z,-3.45662
2023-02-07T22:16:53.239Z,-3.52057
2023-02-07T22:21:54.280Z,-3.5364
2023-02-07T22:26:55.289Z,-3.55836
2023-02-07T22:31:56.316Z,-3.65849
2023-02-07T22:36:57.282Z,-3.71081
2023-02-07T22:41:58.244Z,-3.75991
2023-02-07T22:46:59.188Z,-3.73665
2023-02-07T22:52:00.159Z,-3.73439
2023-02-07T22:57:01.128Z,-3.77315
2023-02-07T23:02:02.158Z,-3.80125
2023-02-07T23:07:03.139Z,-3.80609
2023-02-07T23:12:04.073Z,-3.9214
2023-02-07T23:17:05.089Z,-3.91139
2023-02-07T23:22:06.090Z,-3.96791
2023-02-07T23:27:06.980Z,-4.05512
2023-02-07T23:32:07.940Z,-4.10389
2023-02-07T23:37:08.850Z,-4.09905
2023-02-07T23:42:09.785Z,-4.17398
2023-02-07T23:47:10.742Z,-4.15492
2023-02-07T23:52:11.682Z,-4.15621
2023-02-07T23:57:12.599Z,-4.17301
